Dutchtown, Missouri
Current Conditions -  °F | °C
As of 3:53 AM on Sunday 25 Jan 2015 (Local Time) from KCGI Reporting Station
Clear Clear  
Wind Chill:   Ceiling: Unl
Heat Index:   Visibility: 10mi
Dew Point:   Wind: 9mph
Humidity: 73%   Direction: 200°SSW
Pressure: 29.71"   Gusts: NA
Location:  37.25°N, 89.66°W
Report Text: KCGI 250953Z AUTO 20008KT 10SM CLR 05/01 A2971 RMK AO2 SLP060 T00500006 TSNO
Loading
Personal Weather Stations






























Interactive Weather Map New forecast layout! Learn more

10-Day Weather Forecast

Advertisements
Track Severe Weather on mobile